Salida, CO

12:10 AM MDT on September 19, 2014 (GMT -0600)
Monarch Pass | Change Station
CLOSE
Current Station
Airport
Location: Monarch Pass,
Elevation: 12031 ft
Nearby Weather Stations

Elev 12031 ft 38.48 °N, 106.32 °W | Updated 17 minutes ago

Clear
Clear
48 °F
Feels Like 48 °F
N
17
Wind Variable Wind from South
Gusts 22 mph

Today
High -- | Low -- °F
--% Chance of Precip.
Yesterday
High -- | Low -- °F
Precip. -- in
6:49 AM 7:05 PM
Waning Crescent, 21% visible
Pressure 30.59 in
Visibility 10.0 miles
Clouds Clear
Dew Point 28 °F
Humidity 46%
Rainfall 0.00 in
Snow Depth Not available.
UV 0 out of 12
Pollen 6.00 out of 12
Air Quality Not available.
Flu Activity Not available.
METAR KMYP 190553Z AUTO 19015G19KT 10SM CLR 09/M02 A3059 RMK AO2

More Conditions Fewer Conditions

Pressure 30.59 in
Visibility 10.0 miles
Clouds Clear
Dew Point 28 °F
Humidity 46%
Rainfall 0.00 in
Snow Depth Not available.
UV 0 out of 12
Pollen 6.00 out of 12
Air Quality Not available.
Flu Activity Not available.
METAR KMYP 190553Z AUTO 19015G19KT 10SM CLR 09/M02 A3059 RMK AO2

More Conditions Fewer Conditions

10-Day Weather Forecast

Almanac

Astronomy

Sep. 19, 2014 Rise Set
Actual Time 6:49 AM MDT 7:05 PM MDT
Civil Twilight 6:22 AM MDT 7:32 PM MDT
Nautical Twilight 5:51 AM MDT 8:03 PM MDT
Astronomical Twilight 5:19 AM MDT 8:34 PM MDT
Moon 2:39 AM MDT 4:34 PM MDT
Length of Visible Light 13h 09m
Length of Day
12h 16m
Tomorrow will be 2m 29s shorter.
Waning Crescent, 21% of the Moon is Illuminated
Today
Waning Crescent
Sep 24
New
Oct 1
First Quarter
Oct 8
Full
Oct 15
Last Quarter

Today's Extremes

State Highs State Lows

Community

WunderPhotos

Upload Photos

1,754,575 photos uploaded!

Nearby

Snow Depth

Station Depth Elevation
Grayback 0 in 11620 ft
Tower 0 in 10500 ft
Mineral Creek 0 in 10040 ft
Independence Pass 187 in 10600 ft
Fremont Pass 0 in 11400 ft

Earthquake Activity

City Distance Mag. Time & Date
No recent earthquake activity has been reported nearby.
Minimum magnitude displayed is 2.5.

Coastal Water Temperatures

Place Temperature
No Stations Reporting

Nearby Weather Stations